Chippewa Falls, WI (54729)

12:28 AM CST on December 10, 2016 (GMT -0600)
Lafayette | | Change Station

Elev 928 ft 44.92 °N, 91.32 °W | Updated 9 seconds ago

Overcast
Overcast
13.8 °F
Feels Like 14 °F
N
0.0
Wind Variable Wind from WNW

Today
High -- | Low -- °F
--% Chance of Precip.
Yesterday
High -- | Low -- °F
Precip. -- in
Pressure 30.52 in
Visibility 10.0 miles
Clouds Overcast 3100 ft
Windchill 14 °F
Dew Point 10 °F
Humidity 84%
Rainfall 0.00 in
Snow Depth Not available.
7:33 AM 4:24 PM
Waxing Gibbous, 81% visible
METAR KEAU 100556Z AUTO 27008KT 10SM OVC031 M10/M15 A3046 RMK AO2 SLP333 60000 T11001150 11089 21100 410721133 53001
Pressure 30.52 in
Visibility 10.0 miles
Clouds Overcast 3100 ft
Windchill 14 °F
Dew Point 10 °F
Humidity 84%
Rainfall 0.00 in
Snow Depth Not available.
7:33 AM 4:24 PM
Waxing Gibbous, 81% visible
METAR KEAU 100556Z AUTO 27008KT 10SM OVC031 M10/M15 A3046 RMK AO2 SLP333 60000 T11001150 11089 21100 410721133 53001

10-Day Weather Forecast

Almanac

Astronomy

Dec. 10, 2016 Rise Set
Actual Time
Civil Twilight
Nautical Twilight
Astronomical Twilight
Moon
Length of Visible Light
Length of Day
Tomorrow will be .
, % of the Moon is Illuminated

Today's Extremes

State Highs State Lows

Community

WunderPhotos

Upload Photos

1,956,527 photos uploaded!

WunderBlog® & News

Nearby

Air Quality

  Air Quality AQ Index Pollutant
Not available.

Snow Depth

Station Depth Elevation

Earthquake Activity

City Distance Mag. Time & Date
Minimum magnitude displayed is 2.5.

Coastal Water Temperatures

Place Temperature

Stations

Nearby Weather Stations

Station Location Temp. Windchill Dew Point Humidity Wind Precip. Elev Updated Type
                   

Watches & Warnings

There are currently no watches in effect.